Time;durP1;ratioP1;P1;durP2;ratioP2;P2;SDS_P1;SDS_P2;PMS_P1;PMS_P2;Temp;Humidity;BMP_temperature;BMP_pressure;BME280_temperature;BME280_humidity;BME280_pressure;Samples;Min_cycle;Max_cycle;Signal;HPM_P1;HPM_P2
2022/06/30 00:01:28;;;;;;;6.65;6.35;;;;;;;-141.48;100.00;69781.59;5224958;28;20025;-61
2022/06/30 01:15:06;;;;;;;9.57;8.93;;;;;;;-141.48;100.00;69781.59;4269602;24;20094;-91
2022/06/30 01:17:36;;;;;;;11.43;8.23;;;;;;;-141.48;100.00;69781.59;4973612;29;20039;-90
2022/06/30 01:20:08;;;;;;;11.40;9.23;;;;;;;15.37;100.00;100833.50;4969796;29;20035;-91
2022/06/30 01:22:38;;;;;;;10.02;9.25;;;;;;;;;;4967683;29;20054;-91
2022/06/30 01:25:10;;;;;;;10.38;9.68;;;;;;;-141.48;100.00;69781.59;4969869;29;20038;-91
2022/06/30 01:27:40;;;;;;;11.32;10.20;;;;;;;-141.48;100.00;69781.59;4969302;29;20158;-91
2022/06/30 01:30:12;;;;;;;12.88;11.77;;;;;;;-141.48;100.00;69781.59;4985438;29;20050;-90
2022/06/30 01:32:42;;;;;;;9.80;9.00;;;;;;;15.37;100.00;100833.50;4972655;29;20034;-92
2022/06/30 01:35:13;;;;;;;11.38;10.38;;;;;;;15.37;100.00;-13312.22;4969218;29;20069;-91
2022/06/30 01:37:55;;;;;;;10.88;9.98;;;;;;;15.37;100.00;77794.66;4984900;29;20026;-91
2022/06/30 01:40:28;;;;;;;17.45;11.02;;;;;;;-141.48;100.00;69781.59;4966772;29;20045;-91
2022/06/30 01:43:00;;;;;;;13.70;12.60;;;;;;;-141.48;100.00;69781.59;4983816;29;20084;-92
2022/06/30 01:45:32;;;;;;;11.10;10.40;;;;;;;-141.48;100.00;69781.59;4967455;29;20098;-91
2022/06/30 01:48:03;;;;;;;12.18;10.90;;;;;;;-141.48;100.00;69781.59;4969781;29;20038;-91
2022/06/30 01:50:35;;;;;;;11.90;11.00;;;;;;;-141.48;100.00;69781.59;4969789;29;20155;-91
2022/06/30 01:53:05;;;;;;;12.95;11.75;;;;;;;-141.48;100.00;69781.59;4987411;29;20153;-90
2022/06/30 01:55:42;;;;;;;12.98;11.70;;;;;;;-141.48;100.00;69781.59;4985128;29;20027;-91
2022/06/30 01:58:12;;;;;;;14.68;13.60;;;;;;;-141.48;100.00;69781.59;4974284;29;20045;-91
2022/06/30 02:00:43;;;;;;;13.05;12.07;;;;;;;-141.48;100.00;69781.59;4975601;29;20031;-91
2022/06/30 02:03:13;;;;;;;11.75;10.85;;;;;;;-141.48;100.00;69781.59;4973561;29;20027;-91
2022/06/30 02:05:46;;;;;;;13.30;12.32;;;;;;;-141.48;100.00;69781.59;4970753;29;20087;-91
2022/06/30 02:08:19;;;;;;;12.50;11.70;;;;;;;-141.48;100.00;69781.59;4972771;29;20056;-91
2022/06/30 02:10:49;;;;;;;12.32;11.07;;;;;;;-141.48;100.00;69781.59;4971814;29;20149;-91
2022/06/30 02:13:20;;;;;;;12.88;11.93;;;;;;;-141.48;100.00;69781.59;4971678;29;20022;-91
2022/06/30 02:15:56;;;;;;;16.33;14.93;;;;;;;-141.48;100.00;69781.59;4970454;29;20030;-91
2022/06/30 02:18:32;;;;;;;14.13;11.52;;;;;;;15.37;100.00;100833.50;4986344;29;20094;-91
2022/06/30 02:21:03;;;;;;;12.10;11.00;;;;;;;15.37;100.00;100833.50;4971309;29;20094;-91
2022/06/30 02:23:34;;;;;;;11.95;11.15;;;;;;;15.37;100.00;100833.50;4984009;29;20065;-91
2022/06/30 02:26:04;;;;;;;16.58;11.98;;;;;;;13.28;100.00;74716.63;4970881;29;20066;-92
2022/06/30 02:28:35;;;;;;;12.15;11.27;;;;;;;13.30;100.00;74719.59;4967218;29;20058;-92
2022/06/30 02:31:05;;;;;;;14.43;13.00;;;;;;;13.39;100.00;74729.06;4983049;29;20034;-90
2022/06/30 02:33:36;;;;;;;15.32;10.98;;;;;;;13.42;100.00;74732.97;4968647;29;20043;-91
2022/06/30 02:36:07;;;;;;;11.82;11.00;;;;;;;13.52;100.00;74745.16;4966865;29;20031;-91
2022/06/30 02:38:38;;;;;;;12.40;11.10;;;;;;;13.61;100.00;74755.44;4965643;29;20050;-91
2022/06/30 02:41:08;;;;;;;10.85;10.05;;;;;;;13.74;100.00;74770.66;4967004;29;20035;-92
2022/06/30 02:43:39;;;;;;;11.35;10.63;;;;;;;13.80;100.00;74778.16;4966312;29;20489;-92
2022/06/30 02:46:09;;;;;;;11.68;10.88;;;;;;;13.75;100.00;74777.13;4967254;29;20030;-92
2022/06/30 02:48:40;;;;;;;11.05;10.13;;;;;;;13.85;100.00;74783.53;4965041;29;20041;-92
2022/06/30 02:51:13;;;;;;;11.75;10.90;;;;;;;13.85;100.00;74783.53;4966245;29;20064;-91
2022/06/30 02:53:46;;;;;;;11.48;10.60;;;;;;;13.85;100.00;74783.53;4967487;29;20031;-91
2022/06/30 02:56:22;;;;;;;14.10;12.98;;;;;;;13.87;100.00;74786.22;4965192;29;20031;-91
2022/06/30 02:58:55;;;;;;;15.18;13.75;;;;;;;13.87;100.00;74786.22;4964664;29;20030;-92
2022/06/30 03:04:10;;;;;;;14.77;13.57;;;;;;;13.97;100.00;74798.16;4981272;24;20783;-66
2022/06/30 03:06:41;;;;;;;13.98;12.88;;;;;;;13.97;100.00;74798.16;4952640;29;20035;-68
2022/06/30 03:09:11;;;;;;;14.77;13.65;;;;;;;14.06;100.00;74808.31;4969402;29;20453;-66
2022/06/30 03:11:42;;;;;;;15.32;14.13;;;;;;;14.06;100.00;74808.31;4969188;29;20507;-66
2022/06/30 03:14:12;;;;;;;18.88;17.15;;;;;;;14.06;100.00;74808.31;4967433;29;20034;-67
2022/06/30 03:16:42;;;;;;;19.13;17.60;;;;;;;14.13;79.27;74817.59;4967833;29;20384;-66
2022/06/30 03:19:13;;;;;;;15.77;14.25;;;;;;;-141.48;100.00;90178.53;4969121;29;20037;-66
2022/06/30 03:21:44;;;;;;;15.10;14.07;;;;;;;14.30;100.00;-7030.97;4968397;29;20052;-66
2022/06/30 03:24:14;;;;;;;17.05;15.60;;;;;;;-141.48;100.00;69781.59;4967851;29;20034;-66
2022/06/30 03:26:44;;;;;;;18.00;16.67;;;;;;;-141.48;100.00;69781.59;4968763;29;20085;-67
2022/06/30 03:29:15;;;;;;;17.75;16.33;;;;;;;-141.48;100.00;69781.59;4969134;29;20034;-67
2022/06/30 03:31:46;;;;;;;19.05;17.45;;;;;;;-141.48;100.00;69781.59;4968838;29;20481;-66
2022/06/30 03:34:16;;;;;;;21.50;17.65;;;;;;;-141.48;100.00;69781.59;4968200;29;20389;-67
2022/06/30 03:36:46;;;;;;;16.77;15.43;;;;;;;-141.48;100.00;69781.59;4967449;29;20034;-67
2022/06/30 03:39:17;;;;;;;18.05;16.52;;;;;;;-141.48;100.00;69781.59;4967099;29;20031;-67
2022/06/30 03:41:47;;;;;;;14.98;13.98;;;;;;;-141.48;100.00;69781.59;4968551;29;20027;-68
2022/06/30 03:44:18;;;;;;;13.70;12.55;;;;;;;-141.48;100.00;69781.59;4966740;29;20034;-68
2022/06/30 03:46:48;;;;;;;11.57;10.77;;;;;;;-141.48;100.00;69781.59;4968555;29;20034;-66
2022/06/30 03:49:18;;;;;;;12.00;10.95;;;;;;;-141.48;100.00;69781.59;4968414;29;20033;-66
2022/06/30 03:51:49;;;;;;;11.48;10.65;;;;;;;-141.48;100.00;69781.59;4966283;29;20026;-66
2022/06/30 03:54:19;;;;;;;13.00;12.05;;;;;;;-141.48;100.00;69781.59;4967536;29;20375;-66
2022/06/30 03:56:50;;;;;;;14.13;12.70;;;;;;;-141.48;100.00;69781.59;4968415;29;20556;-66
2022/06/30 03:59:20;;;;;;;12.82;11.80;;;;;;;-141.48;100.00;69781.59;4967166;29;20359;-66
2022/06/30 04:01:51;;;;;;;12.48;11.68;;;;;;;-141.48;100.00;69781.59;4968179;29;20062;-66
2022/06/30 04:04:21;;;;;;;14.88;12.50;;;;;;;-141.48;100.00;69781.59;4967681;29;20046;-66
2022/06/30 04:06:51;;;;;;;11.25;10.35;;;;;;;-141.48;100.00;69781.59;4968099;29;20154;-67
2022/06/30 04:09:22;;;;;;;12.60;9.77;;;;;;;-141.48;100.00;69781.59;4968272;29;20523;-66
2022/06/30 04:11:52;;;;;;;9.73;9.02;;;;;;;-141.48;100.00;69781.59;4967925;29;20026;-66
2022/06/30 04:14:23;;;;;;;9.93;8.98;;;;;;;-141.48;100.00;69781.59;4967429;29;20102;-70
2022/06/30 04:16:53;;;;;;;10.75;9.82;;;;;;;-141.48;100.00;69781.59;4968080;29;20095;-67
2022/06/30 04:19:23;;;;;;;11.55;10.50;;;;;;;-141.48;100.00;69781.59;4967801;29;20502;-67
2022/06/30 04:21:54;;;;;;;8.77;8.02;;;;;;;-141.48;100.00;69781.59;4968012;29;20031;-66
2022/06/30 04:24:24;;;;;;;9.70;8.75;;;;;;;-141.48;100.00;69781.59;4967695;29;20569;-66
2022/06/30 04:26:55;;;;;;;9.35;8.65;;;;;;;-141.48;100.00;69781.59;4968071;29;20096;-66
2022/06/30 04:29:25;;;;;;;16.60;9.50;;;;;;;-141.48;100.00;69781.59;4968456;29;20076;-67
2022/06/30 04:34:45;;;;;;;10.07;9.15;;;;;;;-141.48;100.00;69781.59;4970234;29;20142;-67
2022/06/30 04:37:16;;;;;;;7.43;6.93;;;;;;;-141.48;100.00;69781.59;4972015;29;20543;-66
2022/06/30 04:39:46;;;;;;;10.43;8.65;;;;;;;-141.48;100.00;69781.59;4972146;29;20030;-66
2022/06/30 04:42:17;;;;;;;12.70;8.43;;;;;;;-141.48;100.00;69781.59;4971518;29;20046;-67
2022/06/30 04:44:47;;;;;;;7.57;7.15;;;;;;;-141.48;100.00;69781.59;4971353;29;20034;-65
2022/06/30 04:47:18;;;;;;;7.03;5.95;;;;;;;-141.48;100.00;69781.59;4971711;29;20088;-68
2022/06/30 04:49:48;;;;;;;7.05;6.45;;;;;;;-141.48;100.00;69781.59;4971723;29;20031;-67
2022/06/30 04:52:18;;;;;;;7.70;7.18;;;;;;;-141.48;100.00;69781.59;4972082;29;20030;-66
2022/06/30 04:54:49;;;;;;;9.27;5.70;;;;;;;-141.48;100.00;69781.59;4971173;29;20186;-66
2022/06/30 04:57:19;;;;;;;13.35;6.60;;;;;;;-141.48;100.00;69781.59;4972092;29;20184;-66
2022/06/30 04:59:49;;;;;;;7.28;6.70;;;;;;;-141.48;100.00;69781.59;4971423;29;20031;-66
2022/06/30 05:02:20;;;;;;;7.40;7.00;;;;;;;-141.48;100.00;69781.59;4969774;29;20046;-67
2022/06/30 05:04:51;;;;;;;7.10;6.30;;;;;;;-141.48;100.00;69781.59;4971006;29;20027;-66
2022/06/30 05:07:21;;;;;;;8.05;7.35;;;;;;;-141.48;100.00;69781.59;4971478;29;20034;-65
2022/06/30 05:09:51;;;;;;;7.43;6.18;;;;;;;-141.48;100.00;69781.59;4971515;29;20038;-67
2022/06/30 05:12:22;;;;;;;7.07;6.40;;;;;;;-141.48;100.00;69781.59;4971516;29;20037;-66
2022/06/30 05:14:52;;;;;;;7.00;6.45;;;;;;;-141.48;100.00;69781.59;4966338;29;20042;-66
2022/06/30 05:17:23;;;;;;;12.88;6.05;;;;;;;-141.48;100.00;69781.59;4952470;30;20093;-67
2022/06/30 05:19:53;;;;;;;11.27;6.00;;;;;;;-141.48;100.00;69781.59;4952439;29;20503;-66
2022/06/30 05:22:24;;;;;;;7.75;7.15;;;;;;;-141.48;100.00;69781.59;4952471;30;20039;-66
2022/06/30 05:27:47;;;;;;;8.63;6.35;;;;;;;-141.48;100.00;69781.59;4953409;30;20412;-66
2022/06/30 05:30:17;;;;;;;10.52;7.47;;;;;;;-141.48;100.00;69781.59;4952086;30;20020;-66
2022/06/30 05:32:48;;;;;;;11.43;7.07;;;;;;;-141.48;100.00;69781.59;4935976;30;20081;-67
2022/06/30 05:35:19;;;;;;;10.20;6.68;;;;;;;-141.48;100.00;69781.59;4951506;30;20109;-65
2022/06/30 05:37:49;;;;;;;7.28;6.45;;;;;;;-141.48;100.00;69781.59;4952212;30;20027;-66
2022/06/30 05:40:20;;;;;;;7.45;6.53;;;;;;;-141.48;100.00;69781.59;4938797;30;20054;-66
2022/06/30 05:42:50;;;;;;;10.48;6.90;;;;;;;-141.48;100.00;69781.59;4951661;30;20046;-67
2022/06/30 05:45:20;;;;;;;11.80;7.05;;;;;;;-141.48;100.00;69781.59;4950066;29;20554;-67
2022/06/30 05:48:19;;;;;;;9.63;8.05;;;;;;;14.28;100.00;74834.94;4951673;30;20035;-65
2022/06/30 05:51:48;;;;;;;6.88;6.25;;;;;;;-141.48;100.00;69781.59;4951508;30;20165;-66
2022/06/30 05:55:18;;;;;;;11.57;7.82;;;;;;;-141.48;100.00;69781.59;4950951;30;20602;-67
2022/06/30 05:58:50;;;;;;;6.60;5.97;;;;;;;-141.48;100.00;69781.59;4951848;30;20432;-66
2022/06/30 06:02:19;;;;;;;10.40;7.10;;;;;;;-141.48;100.00;69781.59;4951358;30;20039;-65
2022/06/30 06:05:48;;;;;;;6.87;6.10;;;;;;;-141.48;100.00;69781.59;4951159;30;20039;-65
2022/06/30 06:09:17;;;;;;;7.68;5.65;;;;;;;-141.48;100.00;69781.59;4951910;30;20027;-64
2022/06/30 06:12:46;;;;;;;5.82;5.47;;;;;;;-141.48;100.00;69781.59;4950175;30;20120;-65
2022/06/30 06:16:15;;;;;;;6.63;5.18;;;;;;;-141.48;100.00;69781.59;4950180;30;20034;-64
2022/06/30 06:19:44;;;;;;;5.95;5.45;;;;;;;-141.48;100.00;69781.59;4951523;30;20031;-64
2022/06/30 06:23:13;;;;;;;7.45;5.40;;;;;;;-141.48;100.00;69781.59;4951163;30;20027;-64
2022/06/30 06:26:42;;;;;;;8.90;5.95;;;;;;;-141.48;100.00;69781.59;4950758;30;20046;-64
2022/06/30 06:30:11;;;;;;;9.60;5.40;;;;;;;-141.48;100.00;69781.59;4951173;29;20035;-64
2022/06/30 06:33:40;;;;;;;6.95;5.53;;;;;;;-141.48;100.00;69781.59;4950951;30;20035;-64
2022/06/30 06:37:09;;;;;;;4.03;3.83;;;;;;;-141.48;100.00;69781.59;4951108;29;20534;-64
2022/06/30 06:40:38;;;;;;;6.88;3.92;;;;;;;-141.48;100.00;69781.59;4951562;30;20074;-64
2022/06/30 06:44:07;;;;;;;3.53;3.40;;;;;;;-141.48;100.00;69781.59;4950676;30;20102;-63
2022/06/30 06:47:36;;;;;;;6.03;4.25;;;;;;;-141.48;100.00;69781.59;4950922;30;20031;-64
2022/06/30 06:51:05;;;;;;;;;;;;;;;-141.48;100.00;69781.59;4935674;30;20098;-65
2022/06/30 06:54:35;;;;;;;2.60;2.28;;;;;;;-141.48;100.00;69781.59;4950428;30;19944;-64
2022/06/30 06:58:05;;;;;;;3.00;2.88;;;;;;;-141.48;100.00;69781.59;4951086;29;20098;-64
2022/06/30 07:01:34;;;;;;;3.58;3.38;;;;;;;-141.48;100.00;69781.59;4946260;29;20078;-64
2022/06/30 07:05:03;;;;;;;3.30;2.97;;;;;;;-141.48;100.00;69781.59;4930289;30;20085;-64
2022/06/30 07:08:33;;;;;;;2.72;2.63;;;;;;;-141.48;100.00;69781.59;4932739;30;20070;-64
2022/06/30 07:12:02;;;;;;;2.42;2.28;;;;;;;-141.48;100.00;69781.59;4932381;30;20585;-64
2022/06/30 07:15:31;;;;;;;;;;;;;;;-141.48;100.00;69781.59;4969342;29;20038;-64
2022/06/30 07:19:00;;;;;;;3.72;3.47;;;;;;;-141.48;100.00;69781.59;4969713;29;20324;-64
2022/06/30 07:22:28;;;;;;;4.82;2.90;;;;;;;-141.48;100.00;69781.59;4967004;29;20074;-64
2022/06/30 07:25:57;;;;;;;7.30;4.40;;;;;;;-141.48;100.00;69781.59;4968106;29;20648;-64
2022/06/30 07:29:26;;;;;;;5.80;3.65;;;;;;;-141.48;100.00;69781.59;4963166;29;20719;-64
2022/06/30 07:32:56;;;;;;;3.65;3.45;;;;;;;-141.48;100.00;69781.59;4950690;30;20110;-64
2022/06/30 07:36:25;;;;;;;3.28;2.97;;;;;;;-141.48;100.00;69781.59;4950195;29;20575;-64
2022/06/30 07:39:54;;;;;;;6.93;3.13;;;;;;;-141.48;100.00;69781.59;4949606;30;20066;-64
2022/06/30 07:43:22;;;;;;;5.50;3.75;;;;;;;-141.48;100.00;69781.59;4950761;30;20027;-64
2022/06/30 07:46:51;;;;;;;3.50;3.20;;;;;;;-141.48;100.00;69781.59;4949996;29;20069;-65
2022/06/30 07:50:21;;;;;;;18.25;6.70;;;;;;;-141.48;100.00;69781.59;4950865;30;20028;-65
2022/06/30 07:53:50;;;;;;;4.07;3.30;;;;;;;-141.48;100.00;69781.59;4950272;30;20503;-63
2022/06/30 07:57:20;;;;;;;6.10;3.40;;;;;;;-141.48;100.00;69781.59;4948387;30;20039;-64
2022/06/30 08:00:48;;;;;;;4.13;3.72;;;;;;;-141.48;100.00;69781.59;4949589;30;20068;-66
2022/06/30 08:04:17;;;;;;;8.68;3.92;;;;;;;-141.48;100.00;69781.59;4949609;29;20046;-65
2022/06/30 08:07:46;;;;;;;4.10;3.80;;;;;;;-141.48;100.00;69781.59;4949647;30;20039;-64
2022/06/30 08:11:16;;;;;;;3.75;3.38;;;;;;;-141.48;100.00;69781.59;4949644;30;20397;-65
2022/06/30 08:14:46;;;;;;;6.75;5.32;;;;;;;-141.48;100.00;69781.59;4949652;30;20485;-64
2022/06/30 08:18:15;;;;;;;5.97;3.58;;;;;;;-141.48;100.00;69781.59;4934156;30;20107;-63
2022/06/30 08:21:44;;;;;;;3.65;3.35;;;;;;;-141.48;100.00;69781.59;4951570;29;20389;-63
2022/06/30 08:25:13;;;;;;;10.32;4.28;;;;;;;-141.48;100.00;69781.59;4946324;30;20102;-64
2022/06/30 08:28:42;;;;;;;5.50;3.72;;;;;;;-141.48;100.00;69781.59;4946643;30;20501;-63
2022/06/30 08:32:11;;;;;;;4.68;4.22;;;;;;;-141.48;100.00;69781.59;4946982;30;20038;-64
2022/06/30 08:35:40;;;;;;;7.05;6.18;;;;;;;-141.48;100.00;69781.59;4963312;29;20027;-64
2022/06/30 08:42:02;;;;;;;4.38;4.03;;;;;;;-141.48;100.00;69781.59;4967915;29;20169;-64
2022/06/30 08:42:59;;;;;;;5.63;5.10;;;;;;;-141.48;100.00;69781.59;4951682;29;20474;-64
2022/06/30 08:46:28;;;;;;;3.05;2.85;;;;;;;-141.48;100.00;69781.59;4945112;30;20170;-63
2022/06/30 08:49:57;;;;;;;4.07;3.75;;;;;;;-141.48;100.00;69781.59;4948440;29;20031;-63
2022/06/30 08:53:30;;;;;;;5.70;4.80;;;;;;;-141.48;100.00;69781.59;4947890;29;20034;-63
2022/06/30 08:57:00;;;;;;;6.72;4.78;;;;;;;-141.48;100.00;69781.59;4949060;29;20389;-64
2022/06/30 09:00:30;;;;;;;3.75;3.45;;;;;;;-141.48;100.00;69781.59;4948911;30;20023;-64
2022/06/30 09:03:59;;;;;;;5.65;4.38;;;;;;;-141.48;100.00;69781.59;4948727;29;20117;-66
2022/06/30 09:07:30;;;;;;;4.38;4.07;;;;;;;-141.48;100.00;69781.59;4948983;29;20119;-64
2022/06/30 09:10:59;;;;;;;7.18;3.88;;;;;;;-141.48;100.00;69781.59;4948897;30;20031;-64
2022/06/30 09:14:57;;;;;;;4.85;4.28;;;;;;;-141.48;100.00;69781.59;4948171;30;20388;-65
2022/06/30 09:18:28;;;;;;;12.10;4.68;;;;;;;-141.48;100.00;69781.59;4937761;30;20031;-64
2022/06/30 09:22:03;;;;;;;11.63;5.10;;;;;;;-141.48;100.00;69781.59;4949882;29;20031;-64
2022/06/30 09:25:32;;;;;;;13.60;5.28;;;;;;;-141.48;100.00;69781.59;4928633;30;20167;-64
2022/06/30 09:29:01;;;;;;;6.53;4.55;;;;;;;-141.48;100.00;69781.59;4949383;30;20046;-64
2022/06/30 09:32:47;;;;;;;3.78;3.58;;;;;;;-141.48;100.00;69781.59;4935987;30;20497;-64
2022/06/30 09:36:28;;;;;;;5.90;2.75;;;;;;;-141.48;100.00;69781.59;4951827;30;20493;-64
2022/06/30 09:39:57;;;;;;;6.32;4.00;;;;;;;-141.48;100.00;69781.59;4967835;29;20113;-62
2022/06/30 09:43:43;;;;;;;4.72;4.35;;;;;;;-141.48;100.00;69781.59;4951048;30;20396;-62
2022/06/30 09:47:12;;;;;;;4.43;2.30;;;;;;;-141.48;100.00;69781.59;4951422;29;20085;-63
2022/06/30 09:50:55;;;;;;;8.85;3.45;;;;;;;-141.48;100.00;69781.59;4951557;30;20071;-61
2022/06/30 09:54:24;;;;;;;7.78;4.35;;;;;;;-141.48;100.00;69781.59;4936964;30;20034;-60
2022/06/30 09:57:59;;;;;;;3.72;3.42;;;;;;;-141.48;100.00;69781.59;4965660;24;20501;-78
2022/06/30 10:01:28;;;;;;;3.20;2.95;;;;;;;-141.48;100.00;69781.59;4953622;30;20035;-80
2022/06/30 10:04:57;;;;;;;;;;;;;;;-141.48;100.00;69781.59;4953559;30;20027;-79
2022/06/30 10:08:26;;;;;;;7.47;4.13;;;;;;;-141.48;100.00;69781.59;4953104;30;19921;-77
2022/06/30 10:11:55;;;;;;;;;;;;;;;-141.48;100.00;69781.59;4953133;30;20042;-78
2022/06/30 10:15:25;;;;;;;3.25;3.03;;;;;;;-141.48;100.00;69781.59;4952072;30;19921;-78
2022/06/30 10:18:54;;;;;;;7.93;3.67;;;;;;;-141.48;100.00;69781.59;4952499;30;20042;-79
2022/06/30 10:22:25;;;;;;;4.53;4.18;;;;;;;-141.48;100.00;69781.59;4950744;30;20474;-80
2022/06/30 10:25:55;;;;;;;3.67;3.08;;;;;;;-141.48;100.00;69781.59;4950544;30;20027;-77
2022/06/30 10:29:25;;;;;;;7.97;3.08;;;;;;;-141.48;100.00;69781.59;4951030;30;20043;-78
2022/06/30 10:37:36;;;;;;;5.20;2.58;;;;;;;-141.48;100.00;69781.59;4953224;30;20058;-77
2022/06/30 10:41:24;;;;;;;9.30;3.85;;;;;;;-141.48;100.00;69781.59;4952138;30;20058;-80
2022/06/30 10:45:02;;;;;;;3.77;3.17;;;;;;;-141.48;100.00;69781.59;4951567;30;20110;-79
2022/06/30 10:48:50;;;;;;;3.58;3.35;;;;;;;-141.48;100.00;69781.59;4935247;30;20043;-78
2022/06/30 10:52:25;;;;;;;3.25;3.05;;;;;;;-141.48;100.00;69781.59;4956244;30;20031;-79
2022/06/30 10:55:59;;;;;;;3.40;2.97;;;;;;;-141.48;100.00;69781.59;4965200;30;20023;-76
2022/06/30 10:59:28;;;;;;;3.22;2.50;;;;;;;-141.48;100.00;69781.59;5017274;24;20050;-90
2022/06/30 11:02:57;;;;;;;;;;;;;;;-141.48;100.00;69781.59;4979568;29;20057;-91
2022/06/30 11:06:49;;;;;;;3.83;3.53;;;;;;;-141.48;100.00;69781.59;4997090;29;19924;-90
2022/06/30 11:10:38;;;;;;;1.85;1.75;;;;;;;-141.48;100.00;69781.59;4956648;29;20047;-90
2022/06/30 11:14:07;;;;;;;2.70;2.50;;;;;;;-141.48;100.00;69781.59;4974030;29;20034;-90
2022/06/30 11:17:39;;;;;;;2.53;2.42;;;;;;;-141.48;100.00;69781.59;4956015;30;20035;-91
2022/06/30 11:21:09;;;;;;;3.80;3.55;;;;;;;-141.48;100.00;69781.59;4942368;30;20134;-91
2022/06/30 11:24:42;;;;;;;2.88;2.78;;;;;;;-141.48;100.00;69781.59;4942259;30;20027;-91
2022/06/30 11:28:14;;;;;;;2.92;2.83;;;;;;;-141.48;100.00;69781.59;4943504;30;20035;-92
2022/06/30 11:31:43;;;;;;;3.67;3.40;;;;;;;-141.48;100.00;69781.59;4943016;30;20062;-91
2022/06/30 11:39:44;;;;;;;5.45;3.53;;;;;;;-141.48;100.00;69781.59;4927561;30;19929;-89
2022/06/30 11:48:03;;;;;;;5.07;3.28;;;;;;;-141.48;100.00;69781.59;4965758;24;20055;-59
2022/06/30 11:51:32;;;;;;;3.13;2.90;;;;;;;-141.48;100.00;69781.59;4942115;30;20126;-59
2022/06/30 11:55:12;;;;;;;2.75;2.55;;;;;;;-141.48;100.00;69781.59;4933192;30;20028;-60
2022/06/30 11:58:45;;;;;;;6.55;3.60;;;;;;;-141.48;100.00;69781.59;4931615;30;20143;-60
2022/06/30 12:02:15;;;;;;;3.28;3.08;;;;;;;-141.48;100.00;69781.59;4929561;30;20031;-60
2022/06/30 12:05:52;;;;;;;4.75;4.38;;;;;;;-141.48;100.00;69781.59;4930531;30;20052;-64
2022/06/30 12:09:24;;;;;;;3.33;3.22;;;;;;;-141.48;100.00;69781.59;4915042;30;20059;-64
2022/06/30 12:12:55;;;;;;;3.30;3.10;;;;;;;-141.48;100.00;69781.59;4931031;30;20510;-64
2022/06/30 12:16:23;;;;;;;3.42;3.22;;;;;;;-141.48;100.00;69781.59;4929540;30;20035;-64
2022/06/30 12:19:53;;;;;;;2.70;2.60;;;;;;;-141.48;100.00;69781.59;4930985;30;20066;-63
2022/06/30 12:23:22;;;;;;;;;;;;;;;-141.48;100.00;69781.59;4931583;30;20083;-64
2022/06/30 12:26:53;;;;;;;3.28;3.13;;;;;;;-141.48;100.00;69781.59;4930887;30;19922;-63
2022/06/30 12:30:24;;;;;;;2.55;2.45;;;;;;;-141.48;100.00;69781.59;4931389;30;20251;-63
2022/06/30 12:34:00;;;;;;;3.10;2.90;;;;;;;-141.48;100.00;69781.59;4930016;30;20036;-63
2022/06/30 12:37:39;;;;;;;7.75;4.10;;;;;;;-141.48;100.00;69781.59;4928864;30;20031;-64
2022/06/30 12:41:10;;;;;;;3.15;3.03;;;;;;;-141.48;100.00;69781.59;4943688;30;20031;-63
2022/06/30 12:44:43;;;;;;;3.70;3.03;;;;;;;-141.48;100.00;69781.59;4941669;30;20038;-64
2022/06/30 12:48:14;;;;;;;12.82;4.88;;;;;;;-141.48;100.00;69781.59;4930984;30;20562;-63
2022/06/30 12:51:44;;;;;;;3.38;3.13;;;;;;;-141.48;100.00;69781.59;4931350;30;20288;-63
2022/06/30 12:55:14;;;;;;;4.10;3.00;;;;;;;-141.48;100.00;69781.59;4930738;30;20225;-64
2022/06/30 12:58:48;;;;;;;4.63;3.08;;;;;;;-141.48;100.00;69781.59;4934876;30;20043;-63
2022/06/30 13:02:33;;;;;;;5.32;2.83;;;;;;;-141.48;100.00;69781.59;4934787;30;20032;-63
2022/06/30 13:06:02;;;;;;;4.13;3.55;;;;;;;-141.48;100.00;69781.59;4934320;30;20063;-63
2022/06/30 13:09:36;;;;;;;2.83;2.72;;;;;;;-141.48;100.00;69781.59;4917954;30;20031;-63
2022/06/30 13:13:05;;;;;;;2.78;2.65;;;;;;;-141.48;100.00;69781.59;4919877;30;20059;-63
2022/06/30 13:16:34;;;;;;;;;;;;;;;-141.48;100.00;69781.59;4934525;30;20028;-64
2022/06/30 13:20:04;;;;;;;3.45;3.25;;;;;;;-141.48;100.00;69781.59;4933739;30;19914;-63
2022/06/30 13:23:32;;;;;;;3.08;2.88;;;;;;;-141.48;100.00;69781.59;4947449;30;20042;-64
2022/06/30 13:27:03;;;;;;;5.28;3.72;;;;;;;-141.48;100.00;69781.59;4931908;30;20027;-64
2022/06/30 13:30:32;;;;;;;11.40;3.53;;;;;;;-141.48;100.00;69781.59;4934138;30;20477;-63
2022/06/30 13:34:02;;;;;;;4.28;3.30;;;;;;;-141.48;100.00;69781.59;4934070;30;20039;-63
2022/06/30 13:37:33;;;;;;;2.78;2.55;;;;;;;-141.48;100.00;69781.59;4933815;30;20027;-62
2022/06/30 13:41:03;;;;;;;4.50;4.18;;;;;;;-141.48;100.00;69781.59;4924164;30;20053;-62
2022/06/30 13:44:32;;;;;;;5.25;2.97;;;;;;;-141.48;100.00;69781.59;4933034;30;20115;-64
2022/06/30 13:48:01;;;;;;;3.67;3.42;;;;;;;-141.48;100.00;69781.59;4933771;30;20060;-63
2022/06/30 13:51:30;;;;;;;4.32;4.13;;;;;;;-141.48;100.00;69781.59;4916635;30;20043;-63
2022/06/30 13:55:00;;;;;;;7.30;3.97;;;;;;;-141.48;100.00;69781.59;4932860;30;20051;-63
2022/06/30 13:58:28;;;;;;;5.85;5.38;;;;;;;-141.48;100.00;69781.59;4933450;30;20035;-63
2022/06/30 14:01:57;;;;;;;4.65;3.90;;;;;;;-141.48;100.00;69781.59;4929854;30;20039;-63
2022/06/30 14:05:26;;;;;;;5.13;4.60;;;;;;;-141.48;100.00;69781.59;4951226;30;20031;-64
2022/06/30 14:08:55;;;;;;;5.25;4.93;;;;;;;-141.48;100.00;69781.59;4949858;29;20061;-64
2022/06/30 14:12:25;;;;;;;8.10;4.95;;;;;;;-141.48;100.00;69781.59;4951874;30;20023;-62
2022/06/30 14:15:54;;;;;;;5.28;4.82;;;;;;;-141.48;100.00;69781.59;4934581;30;20053;-62
2022/06/30 14:19:23;;;;;;;5.68;5.20;;;;;;;-141.48;100.00;69781.59;4951857;30;20095;-62
2022/06/30 14:22:52;;;;;;;4.95;4.55;;;;;;;-141.48;100.00;69781.59;4952182;30;20027;-62
2022/06/30 14:26:21;;;;;;;5.68;5.30;;;;;;;-141.48;100.00;69781.59;4950954;29;20028;-63
2022/06/30 14:29:50;;;;;;;7.45;4.60;;;;;;;-141.48;100.00;69781.59;4918721;30;20105;-65
2022/06/30 14:33:19;;;;;;;7.28;5.88;;;;;;;-141.48;100.00;69781.59;4933489;30;20039;-64
2022/06/30 14:36:49;;;;;;;15.20;6.35;;;;;;;-141.48;100.00;69781.59;4928544;30;20042;-63
2022/06/30 14:40:18;;;;;;;3.63;3.42;;;;;;;-141.48;100.00;69781.59;4931070;30;20030;-63
2022/06/30 14:43:47;;;;;;;8.73;4.35;;;;;;;-141.48;100.00;69781.59;4933091;30;20032;-63
2022/06/30 14:47:16;;;;;;;4.70;3.70;;;;;;;-141.48;100.00;69781.59;4902613;30;20039;-65
2022/06/30 14:50:45;;;;;;;4.55;4.35;;;;;;;-141.48;100.00;69781.59;4931124;30;20035;-65
2022/06/30 14:54:14;;;;;;;5.63;4.32;;;;;;;-141.48;100.00;69781.59;4932336;30;20038;-62
2022/06/30 14:57:43;;;;;;;6.18;5.13;;;;;;;-141.48;100.00;69781.59;4930532;30;20122;-63
2022/06/30 15:01:17;;;;;;;4.82;4.57;;;;;;;-141.48;100.00;69781.59;4932076;30;20386;-63
2022/06/30 15:04:46;;;;;;;5.65;5.13;;;;;;;-141.48;100.00;69781.59;4923521;30;20493;-64
2022/06/30 15:08:15;;;;;;;6.17;5.60;;;;;;;-141.48;100.00;69781.59;4931609;30;20447;-64
2022/06/30 15:11:45;;;;;;;5.40;5.07;;;;;;;-141.48;100.00;69781.59;4931891;30;20652;-64
2022/06/30 15:15:14;;;;;;;3.55;3.45;;;;;;;-141.48;100.00;69781.59;4931449;30;20546;-63
2022/06/30 15:18:43;;;;;;;5.07;4.78;;;;;;;-141.48;100.00;69781.59;4930362;30;20040;-62
2022/06/30 15:26:00;;;;;;;7.32;6.63;;;;;;;-141.48;100.00;69781.59;4931303;30;20416;-64
2022/06/30 15:29:29;;;;;;;5.23;5.03;;;;;;;-141.48;100.00;69781.59;4945739;30;20027;-65
2022/06/30 15:33:02;;;;;;;7.10;6.80;;;;;;;-141.48;100.00;69781.59;4948692;29;20288;-65
2022/06/30 15:36:31;;;;;;;6.38;6.07;;;;;;;-141.48;100.00;69781.59;4949522;29;20107;-64
2022/06/30 15:40:02;;;;;;;6.57;6.07;;;;;;;-141.48;100.00;69781.59;4948450;30;20042;-62
2022/06/30 15:43:31;;;;;;;6.80;6.50;;;;;;;-141.48;100.00;69781.59;4950472;30;20273;-63
2022/06/30 15:47:01;;;;;;;6.03;5.80;;;;;;;-141.48;100.00;69781.59;4949802;29;20580;-63
2022/06/30 15:50:30;;;;;;;4.95;4.75;;;;;;;-141.48;100.00;69781.59;4948858;30;20031;-63